createdAt,value
2022-11-02T00:01:45.176Z,97928.88
2022-11-02T00:04:11.873Z,97927.88
2022-11-02T00:06:38.484Z,97928.81
2022-11-02T00:09:04.999Z,97927.88
2022-11-02T00:11:31.561Z,97900.03
2022-11-02T00:13:58.340Z,97917.41
2022-11-02T00:16:25.841Z,97921.28
2022-11-02T00:18:56.139Z,97924.44
2022-11-02T00:21:25.589Z,97918.28
2022-11-02T00:23:53.357Z,97918.38
2022-11-02T00:26:20.212Z,97924.38
2022-11-02T00:28:46.952Z,97912.19
2022-11-02T00:31:13.466Z,97908.66
2022-11-02T00:33:39.966Z,97913.53
2022-11-02T00:36:06.680Z,97921.94
2022-11-02T00:38:33.261Z,97914.53
2022-11-02T00:40:59.903Z,97912.91
2022-11-02T00:43:26.387Z,97909.66
2022-11-02T00:45:52.897Z,97901.38
2022-11-02T00:48:19.503Z,97915.09
2022-11-02T00:50:46.009Z,97911.53
2022-11-02T00:53:12.575Z,97885.63
2022-11-02T00:55:39.081Z,97904.78
2022-11-02T00:58:05.921Z,97906.66
2022-11-02T01:00:32.711Z,97912.63
2022-11-02T01:03:02.701Z,97906.13
2022-11-02T01:05:29.914Z,97899.75
2022-11-02T01:07:57.212Z,97902.94
2022-11-02T01:10:26.053Z,97902.13
2022-11-02T01:12:52.657Z,97892.00
2022-11-02T01:15:19.170Z,97906.69
2022-11-02T01:17:45.730Z,97905.50
2022-11-02T01:20:12.679Z,97898.44
2022-11-02T01:22:39.245Z,97906.34
2022-11-02T01:25:05.983Z,97907.94
2022-11-02T01:27:32.510Z,97894.78
2022-11-02T01:29:59.067Z,97900.13
2022-11-02T01:32:25.620Z,97898.47
2022-11-02T01:34:52.128Z,97898.84
2022-11-02T01:37:18.657Z,97896.44
2022-11-02T01:39:45.162Z,97898.47
2022-11-02T01:42:23.412Z,97894.56
2022-11-02T01:44:49.994Z,97897.72
2022-11-02T01:47:26.952Z,97899.00
2022-11-02T01:50:08.486Z,97903.00
2022-11-02T01:52:37.501Z,97900.59
2022-11-02T01:55:12.992Z,97900.50
2022-11-02T01:57:42.024Z,97909.34
2022-11-02T02:00:15.239Z,97909.34
2022-11-02T02:02:50.991Z,97902.50
2022-11-02T02:05:17.906Z,97900.50
2022-11-02T02:07:45.087Z,97900.94
2022-11-02T02:10:12.244Z,97903.34
2022-11-02T02:12:41.720Z,97903.53
2022-11-02T02:15:09.815Z,97904.84
2022-11-02T02:18:00.598Z,97891.28
2022-11-02T02:21:10.661Z,97895.97
2022-11-02T02:23:49.237Z,97904.72
2022-11-02T02:26:47.306Z,97907.88
2022-11-02T02:29:22.061Z,97908.22
2022-11-02T02:31:51.654Z,97907.19
2022-11-02T02:34:28.901Z,97913.16
2022-11-02T02:37:01.614Z,97917.28
2022-11-02T02:39:36.271Z,97912.66
2022-11-02T02:42:21.362Z,97919.59
2022-11-02T02:45:06.687Z,97915.94
2022-11-02T02:47:34.963Z,97913.09
2022-11-02T02:50:11.442Z,97908.59
2022-11-02T02:52:40.121Z,97913.09
2022-11-02T02:55:08.221Z,97913.09
2022-11-02T02:57:36.113Z,97909.91
2022-11-02T03:00:05.065Z,97913.44
2022-11-02T03:02:36.681Z,97907.16
2022-11-02T03:05:23.131Z,97920.22
2022-11-02T03:07:50.150Z,97921.47
2022-11-02T03:10:31.732Z,97922.25
2022-11-02T03:13:01.201Z,97920.22
2022-11-02T03:15:46.278Z,97922.41
2022-11-02T03:18:26.081Z,97924.44
2022-11-02T03:21:06.212Z,97923.59
2022-11-02T03:23:39.638Z,97924.44
2022-11-02T03:26:30.344Z,97920.66
2022-11-02T03:29:04.015Z,97926.56
2022-11-02T03:31:48.798Z,97922.56
2022-11-02T03:34:33.762Z,97919.47
2022-11-02T03:37:18.938Z,97924.16
2022-11-02T03:39:49.817Z,97924.84
2022-11-02T03:42:23.631Z,97916.16
2022-11-02T03:44:58.417Z,97916.84
2022-11-02T03:47:26.247Z,97918.84
2022-11-02T03:49:55.774Z,97919.19
2022-11-02T03:52:28.326Z,97917.28
2022-11-02T03:55:05.297Z,97920.09
2022-11-02T03:57:36.679Z,97913.72
2022-11-02T04:00:09.454Z,97916.69
2022-11-02T04:02:39.387Z,97912.13
2022-11-02T04:05:06.366Z,97912.25
2022-11-02T04:07:59.811Z,97913.09
2022-11-02T04:10:26.723Z,97905.09
2022-11-02T04:13:12.011Z,97910.59
2022-11-02T04:15:38.615Z,97907.41
2022-11-02T04:18:23.670Z,97911.38
2022-11-02T04:20:51.517Z,97912.06
2022-11-02T04:23:37.295Z,97918.44
2022-11-02T04:26:04.995Z,97907.59
2022-11-02T04:28:31.704Z,97910.06
2022-11-02T04:31:01.754Z,97910.97
2022-11-02T04:33:34.524Z,97916.59
2022-11-02T04:36:02.605Z,97921.34
2022-11-02T04:38:42.381Z,97909.41
2022-11-02T04:41:28.868Z,97917.38
2022-11-02T04:43:56.000Z,97914.13
2022-11-02T04:46:24.464Z,97918.03
2022-11-02T04:48:51.399Z,97910.81
2022-11-02T04:51:18.278Z,97912.41
2022-11-02T04:53:44.850Z,97916.00
2022-11-02T04:56:11.492Z,97913.31
2022-11-02T04:58:38.184Z,97910.09
2022-11-02T05:01:06.650Z,97922.44
2022-11-02T05:03:33.234Z,97916.09
2022-11-02T05:05:59.803Z,97922.44
2022-11-02T05:08:26.299Z,97926.72
2022-11-02T05:10:57.058Z,97909.69
2022-11-02T05:13:24.491Z,97920.72
2022-11-02T05:15:50.921Z,97928.72
2022-11-02T05:18:19.284Z,97925.19
2022-11-02T05:20:52.184Z,97941.09
2022-11-02T05:23:19.521Z,97942.72
2022-11-02T05:26:10.717Z,97947.47
2022-11-02T05:28:37.547Z,97946.78
2022-11-02T05:31:04.264Z,97944.00
2022-11-02T05:33:32.068Z,97948.34
2022-11-02T05:35:59.946Z,97945.81
2022-11-02T05:38:27.625Z,97945.72
2022-11-02T05:40:58.986Z,97948.06
2022-11-02T05:43:26.219Z,97944.34
2022-11-02T05:45:55.569Z,97956.97
2022-11-02T05:48:23.103Z,97957.16
2022-11-02T05:50:50.134Z,97956.28
2022-11-02T05:53:16.807Z,97956.00
2022-11-02T05:55:43.365Z,97963.59
2022-11-02T05:58:09.929Z,97958.06
2022-11-02T06:00:36.557Z,97967.41
2022-11-02T06:03:03.348Z,97967.16
2022-11-02T06:05:30.268Z,97972.81
2022-11-02T06:08:00.888Z,97971.31
2022-11-02T06:10:28.968Z,97971.78
2022-11-02T06:13:00.181Z,97975.28
2022-11-02T06:15:28.051Z,97968.88
2022-11-02T06:17:54.890Z,97975.56
2022-11-02T06:20:22.328Z,97971.19
2022-11-02T06:22:49.993Z,97972.94
2022-11-02T06:25:17.067Z,97980.00
2022-11-02T06:27:52.280Z,97975.38
2022-11-02T06:30:18.917Z,97980.47
2022-11-02T06:32:49.767Z,97976.94
2022-11-02T06:35:21.418Z,97981.56
2022-11-02T06:37:48.227Z,97978.75
2022-11-02T06:40:15.292Z,97980.00
2022-11-02T06:42:45.241Z,97981.56
2022-11-02T06:45:17.288Z,97980.81
2022-11-02T06:47:43.825Z,97982.09
2022-11-02T06:50:10.420Z,97982.31
2022-11-02T06:52:43.175Z,97982.53
2022-11-02T06:55:09.796Z,97979.19
2022-11-02T06:57:37.603Z,97967.91
2022-11-02T07:00:06.260Z,97974.56
2022-11-02T07:02:33.062Z,97975.38
2022-11-02T07:04:59.995Z,97963.97
2022-11-02T07:07:26.601Z,97967.13
2022-11-02T07:09:53.142Z,97967.63
2022-11-02T07:12:23.040Z,97964.88
2022-11-02T07:14:49.937Z,97972.44
2022-11-02T07:17:16.649Z,97962.34
2022-11-02T07:35:14.674Z,97919.81
2022-11-02T07:37:41.863Z,97920.59
2022-11-02T07:40:10.342Z,97910.28
2022-11-02T07:42:36.845Z,97908.56
2022-11-02T07:45:03.557Z,97903.00
2022-11-02T07:47:30.884Z,97900.75
2022-11-02T07:49:59.594Z,97896.06
2022-11-02T07:52:26.124Z,97888.00
2022-11-02T07:54:52.674Z,97888.75
2022-11-02T07:57:19.778Z,97887.03
2022-11-02T07:59:46.270Z,97873.84
2022-11-02T08:02:13.736Z,97877.88
2022-11-02T08:04:43.887Z,97869.94
2022-11-02T08:07:12.626Z,97867.53
2022-11-02T08:09:39.375Z,97872.09
2022-11-02T08:12:06.169Z,97863.84
2022-11-02T08:14:32.710Z,97854.44
2022-11-02T08:16:59.251Z,97858.97
2022-11-02T08:19:25.742Z,97886.34
2022-11-02T08:21:52.943Z,97874.91
2022-11-02T08:24:19.325Z,97893.91
2022-11-02T08:26:46.771Z,97905.03
2022-11-02T08:29:15.064Z,97900.66
2022-11-02T08:31:41.581Z,97908.34
2022-11-02T08:34:08.068Z,97898.53
2022-11-02T08:36:37.615Z,97899.72
2022-11-02T08:39:04.307Z,97903.44
2022-11-02T08:41:30.875Z,97904.19
2022-11-02T08:43:57.641Z,97896.22
2022-11-02T08:46:24.312Z,97896.88
2022-11-02T08:48:50.886Z,97890.66
2022-11-02T08:51:17.443Z,97887.97
2022-11-02T08:53:50.169Z,97888.84
2022-11-02T08:56:18.251Z,97886.34
2022-11-02T08:58:44.800Z,97880.47
2022-11-02T09:01:11.351Z,97881.31
2022-11-02T09:03:38.017Z,97871.56
2022-11-02T09:06:04.647Z,97879.78
2022-11-02T09:08:31.361Z,97875.28
2022-11-02T09:11:00.963Z,97873.50
2022-11-02T09:13:27.951Z,97863.09
2022-11-02T09:15:55.189Z,97855.03
2022-11-02T09:18:22.487Z,97851.31
2022-11-02T09:20:49.848Z,97847.16
2022-11-02T09:23:17.391Z,97854.31
2022-11-02T09:25:44.310Z,97847.69
2022-11-02T09:28:11.204Z,97851.84
2022-11-02T09:30:37.894Z,97846.13
2022-11-02T09:33:07.161Z,97832.78
2022-11-02T09:35:38.667Z,97826.53
2022-11-02T09:38:05.226Z,97827.31
2022-11-02T09:40:37.776Z,97813.78
2022-11-02T09:43:15.897Z,97814.59
2022-11-02T09:45:55.699Z,97812.28
2022-11-02T09:48:47.276Z,97802.16
2022-11-02T09:51:42.222Z,97809.66
2022-11-02T09:54:17.291Z,97805.28
2022-11-02T09:56:45.220Z,97793.06
2022-11-02T09:59:15.878Z,97794.38
2022-11-02T10:02:05.495Z,97791.28
2022-11-02T10:04:56.974Z,97781.16
2022-11-02T10:07:45.053Z,97775.16
2022-11-02T10:10:32.048Z,97773.41
2022-11-02T10:12:58.538Z,97769.22
2022-11-02T10:15:28.186Z,97764.31
2022-11-02T10:17:58.385Z,97758.31
2022-11-02T10:20:40.317Z,97753.38
2022-11-02T10:23:09.106Z,97750.00
2022-11-02T10:25:37.625Z,97754.13
2022-11-02T10:28:14.007Z,97744.00
2022-11-02T10:30:42.266Z,97735.44
2022-11-02T10:33:15.483Z,97732.25
2022-11-02T10:38:59.128Z,97724.19
2022-11-02T10:41:40.214Z,97701.56
2022-11-02T10:44:31.134Z,97701.28
2022-11-02T10:47:08.949Z,97698.88
2022-11-02T10:50:00.305Z,97689.66
2022-11-02T10:52:35.241Z,97691.66
2022-11-02T10:55:03.100Z,97681.84
2022-11-02T10:57:32.565Z,97681.97
2022-11-02T11:00:28.259Z,97678.78
2022-11-02T11:03:07.812Z,97665.25
2022-11-02T11:05:37.929Z,97661.53
2022-11-02T11:08:05.922Z,97659.53
2022-11-02T11:10:38.130Z,97650.63
2022-11-02T11:13:05.849Z,97648.00
2022-11-02T11:15:49.757Z,97649.44
2022-11-02T11:21:07.375Z,97628.53
2022-11-02T11:23:34.257Z,97628.19
2022-11-02T11:26:06.945Z,97623.19
2022-11-02T11:28:37.746Z,97615.25
2022-11-02T11:31:14.499Z,97616.06
2022-11-02T11:33:48.881Z,97607.56
2022-11-02T11:36:28.936Z,97599.31
2022-11-02T11:38:58.967Z,97598.59
2022-11-02T11:41:25.655Z,97592.69
2022-11-02T11:43:53.218Z,97597.84
2022-11-02T11:46:19.978Z,97585.50
2022-11-02T11:48:51.633Z,97584.38
2022-11-02T11:51:27.727Z,97580.19
2022-11-02T11:54:24.297Z,97578.91
2022-11-02T11:56:53.177Z,97566.50
2022-11-02T11:59:32.170Z,97561.41
2022-11-02T12:02:03.777Z,97558.44
2022-11-02T12:04:35.416Z,97561.00
2022-11-02T12:07:08.185Z,97555.63
2022-11-02T12:09:52.599Z,97547.84
2022-11-02T12:12:56.012Z,97540.34
2022-11-02T12:15:50.182Z,97543.94
2022-11-02T12:18:19.518Z,97537.84
2022-11-02T12:21:04.566Z,97529.78
2022-11-02T12:24:03.291Z,97525.59
2022-11-02T12:26:54.541Z,97525.53
2022-11-02T12:29:27.314Z,97517.56
2022-11-02T12:32:21.468Z,97510.38
2022-11-02T12:35:27.947Z,97501.97
2022-11-02T12:38:05.420Z,97498.53
2022-11-02T12:40:50.951Z,97506.16
2022-11-02T12:43:38.686Z,97494.34
2022-11-02T12:46:23.880Z,97492.00
2022-11-02T12:49:08.921Z,97495.56
2022-11-02T12:51:42.270Z,97496.09
2022-11-02T12:54:20.126Z,97491.13
2022-11-02T12:56:52.318Z,97491.03
2022-11-02T12:59:30.940Z,97486.41
2022-11-02T13:02:19.811Z,97473.03
2022-11-02T13:05:12.069Z,97476.97
2022-11-02T13:07:55.281Z,97474.53
2022-11-02T13:10:53.553Z,97472.44
2022-11-02T13:13:31.094Z,97470.44
2022-11-02T13:15:59.881Z,97470.66
2022-11-02T13:18:31.789Z,97462.03
2022-11-02T13:21:02.406Z,97454.66
2022-11-02T13:23:37.685Z,97452.34
2022-11-02T13:26:11.828Z,97460.41
2022-11-02T13:28:52.746Z,97451.69
2022-11-02T13:31:38.660Z,97454.97
2022-11-02T13:34:12.003Z,97453.75
2022-11-02T13:36:39.613Z,97455.97
2022-11-02T13:39:18.320Z,97457.19
2022-11-02T13:42:18.497Z,97454.44
2022-11-02T13:44:56.985Z,97450.13
2022-11-02T13:48:02.653Z,97455.88
2022-11-02T13:50:32.614Z,97462.13
2022-11-02T13:53:05.246Z,97446.53
2022-11-02T13:55:45.771Z,97445.31
2022-11-02T13:58:45.726Z,97445.88
2022-11-02T14:01:17.766Z,97437.34
2022-11-02T14:04:02.552Z,97441.53
2022-11-02T14:06:31.822Z,97449.72
2022-11-02T14:09:04.133Z,97447.75
2022-11-02T14:11:48.172Z,97445.06
2022-11-02T14:14:23.849Z,97447.81
2022-11-02T14:16:50.425Z,97450.03
2022-11-02T14:19:20.741Z,97442.94
2022-11-02T14:21:59.813Z,97447.97
2022-11-02T14:24:36.193Z,97438.66
2022-11-02T14:27:19.107Z,97446.34
2022-11-02T14:29:45.568Z,97440.25
2022-11-02T14:32:21.025Z,97431.66
2022-11-02T14:35:22.789Z,97443.03
2022-11-02T14:38:20.966Z,97438.25
2022-11-02T14:41:25.857Z,97433.88
2022-11-02T14:44:20.122Z,97430.81
2022-11-02T14:47:13.379Z,97440.91
2022-11-02T14:49:46.057Z,97439.09
2022-11-02T14:52:12.566Z,97438.75
2022-11-02T14:55:01.707Z,97439.00
2022-11-02T14:57:36.136Z,97435.34
2022-11-02T15:00:19.085Z,97436.63
2022-11-02T15:02:46.316Z,97440.44
2022-11-02T15:05:38.524Z,97446.00
2022-11-02T15:08:14.201Z,97453.16
2022-11-02T15:10:43.856Z,97441.44
2022-11-02T15:13:19.448Z,97449.41
2022-11-02T15:15:52.921Z,97449.59
2022-11-02T15:18:31.302Z,97448.63
2022-11-02T15:21:13.127Z,97452.13
2022-11-02T15:23:46.937Z,97448.78
2022-11-02T15:26:19.222Z,97451.88
2022-11-02T15:28:49.522Z,97455.84
2022-11-02T15:31:26.378Z,97455.72
2022-11-02T15:33:59.671Z,97458.88
2022-11-02T15:36:32.375Z,97458.47
2022-11-02T15:39:03.603Z,97465.72
2022-11-02T15:42:18.025Z,97469.72
2022-11-02T15:45:14.205Z,97463.03
2022-11-02T15:48:06.050Z,97479.72
2022-11-02T15:50:58.331Z,97478.34
2022-11-02T15:53:39.465Z,97485.00
2022-11-02T15:56:21.372Z,97482.66
2022-11-02T15:59:08.866Z,97499.47
2022-11-02T16:01:35.998Z,97490.53
2022-11-02T16:04:05.347Z,97498.97
2022-11-02T16:06:34.581Z,97495.44
2022-11-02T16:09:02.908Z,97506.19
2022-11-02T16:11:29.906Z,97502.47
2022-11-02T16:14:18.237Z,97513.66
2022-11-02T16:16:51.007Z,97515.41
2022-11-02T16:19:21.770Z,97517.53
2022-11-02T16:21:50.903Z,97530.22
2022-11-02T16:24:18.376Z,97530.22
2022-11-02T16:26:46.438Z,97538.63
2022-11-02T16:29:26.750Z,97540.81
2022-11-02T16:31:53.457Z,97542.47
2022-11-02T16:34:22.936Z,97542.69
2022-11-02T16:36:49.699Z,97542.75
2022-11-02T16:39:22.540Z,97544.22
2022-11-02T16:41:51.308Z,97548.53
2022-11-02T16:44:24.425Z,97545.97
2022-11-02T16:46:56.330Z,97554.53
2022-11-02T16:49:24.631Z,97556.47
2022-11-02T16:51:51.197Z,97557.28
2022-11-02T16:54:24.872Z,97559.22
2022-11-02T16:56:52.736Z,97562.03
2022-11-02T16:59:21.337Z,97562.03
2022-11-02T17:01:48.452Z,97570.75
2022-11-02T17:04:21.419Z,97573.50
2022-11-02T17:06:50.649Z,97571.78
2022-11-02T17:09:25.367Z,97575.69
2022-11-02T17:11:53.670Z,97576.84
2022-11-02T17:14:21.531Z,97578.78
2022-11-02T17:17:04.307Z,97581.16
2022-11-02T17:19:39.652Z,97579.94
2022-11-02T17:22:16.974Z,97577.13
2022-11-02T17:24:43.513Z,97577.34
2022-11-02T17:27:25.790Z,97583.03
2022-11-02T17:29:54.854Z,97581.28
2022-11-02T17:32:22.203Z,97586.47
2022-11-02T17:34:56.301Z,97579.13
2022-11-02T17:37:25.724Z,97578.63
2022-11-02T17:39:53.702Z,97585.38
2022-11-02T17:42:39.237Z,97586.97
2022-11-02T17:45:20.787Z,97601.72
2022-11-02T17:47:47.375Z,97597.03
2022-11-02T17:50:14.190Z,97591.84
2022-11-02T17:52:41.322Z,97595.44
2022-11-02T17:55:14.524Z,97592.63
2022-11-02T17:57:41.086Z,97596.09
2022-11-02T18:00:08.924Z,97586.34
2022-11-02T18:02:35.618Z,97596.09
2022-11-02T18:05:02.316Z,97595.13
2022-11-02T18:07:28.844Z,97589.16
2022-11-02T18:09:55.376Z,97591.31
2022-11-02T18:12:21.875Z,97591.31
2022-11-02T18:14:48.432Z,97595.06
2022-11-02T18:17:14.982Z,97594.94
2022-11-02T18:19:41.531Z,97601.38
2022-11-02T18:22:09.989Z,97594.75
2022-11-02T18:24:36.511Z,97597.25
2022-11-02T18:27:03.149Z,97602.25
2022-11-02T18:29:29.652Z,97608.09
2022-11-02T18:31:56.129Z,97609.81
2022-11-02T18:34:22.909Z,97607.28
2022-11-02T18:36:49.492Z,97617.13
2022-11-02T18:39:16.055Z,97622.00
2022-11-02T18:41:42.631Z,97614.13
2022-11-02T18:44:14.924Z,97613.19
2022-11-02T18:46:41.952Z,97620.03
2022-11-02T18:49:08.627Z,97622.88
2022-11-02T18:51:35.172Z,97618.16
2022-11-02T18:54:04.723Z,97617.88
2022-11-02T18:56:31.706Z,97617.06
2022-11-02T18:58:58.272Z,97627.19
2022-11-02T19:01:25.668Z,97626.22
2022-11-02T19:03:53.586Z,97624.59
2022-11-02T19:06:39.309Z,97621.09
2022-11-02T19:09:19.298Z,97624.53
2022-11-02T19:11:45.778Z,97625.50
2022-11-02T19:14:12.380Z,97627.53
2022-11-02T19:16:39.036Z,97632.25
2022-11-02T19:19:05.627Z,97633.16
2022-11-02T19:21:32.156Z,97641.28
2022-11-02T19:23:58.789Z,97638.28
2022-11-02T19:29:01.338Z,97646.59
2022-11-02T19:31:32.067Z,97643.03
2022-11-02T19:34:00.005Z,97645.22
2022-11-02T19:36:27.097Z,97650.19
2022-11-02T19:38:53.669Z,97654.28
2022-11-02T19:41:21.687Z,97650.19
2022-11-02T19:43:48.193Z,97657.66
2022-11-02T19:46:17.305Z,97662.63
2022-11-02T19:48:44.270Z,97671.53
2022-11-02T19:51:19.259Z,97663.94
2022-11-02T19:53:49.665Z,97667.38
2022-11-02T19:56:17.476Z,97673.25
2022-11-02T19:58:46.079Z,97670.66
2022-11-02T20:01:16.768Z,97676.53
2022-11-02T20:03:44.403Z,97663.69
2022-11-02T20:06:19.214Z,97677.28
2022-11-02T20:08:52.454Z,97672.59
2022-11-02T20:11:20.138Z,97668.50
2022-11-02T20:13:47.503Z,97671.59
2022-11-02T20:16:16.620Z,97676.34
2022-11-02T20:18:45.198Z,97675.47
2022-11-02T20:21:19.246Z,97680.50
2022-11-02T20:23:46.364Z,97671.75
2022-11-02T20:26:15.584Z,97683.91
2022-11-02T20:28:47.746Z,97699.06
2022-11-02T20:31:29.177Z,97696.53
2022-11-02T20:33:55.714Z,97692.13
2022-11-02T20:36:22.404Z,97689.78
2022-11-02T20:38:51.724Z,97689.34
2022-11-02T20:41:20.470Z,97702.84
2022-11-02T20:43:49.760Z,97687.78
2022-11-02T20:49:20.805Z,97695.09
2022-11-02T20:51:50.352Z,97696.31
2022-11-02T20:54:19.494Z,97694.97
2022-11-02T20:56:46.733Z,97693.53
2022-11-02T20:59:13.395Z,97697.47
2022-11-02T21:01:40.192Z,97688.56
2022-11-02T21:04:07.247Z,97690.72
2022-11-02T21:06:33.770Z,97695.66
2022-11-02T21:09:00.707Z,97696.19
2022-11-02T21:11:45.935Z,97691.63
2022-11-02T21:14:12.473Z,97685.31
2022-11-02T21:16:38.965Z,97690.03
2022-11-02T21:19:05.486Z,97689.03
2022-11-02T21:21:31.989Z,97694.28
2022-11-02T21:23:58.515Z,97686.41
2022-11-02T21:26:25.070Z,97691.94
2022-11-02T21:28:51.593Z,97701.13
2022-11-02T21:31:20.487Z,97695.13
2022-11-02T21:33:49.128Z,97702.72
2022-11-02T21:36:17.073Z,97704.31
2022-11-02T21:38:48.633Z,97684.53
2022-11-02T21:41:25.853Z,97693.28
2022-11-02T21:43:52.385Z,97699.81
2022-11-02T21:46:19.939Z,97697.13
2022-11-02T21:48:46.691Z,97704.44
2022-11-02T21:51:18.880Z,97703.03
2022-11-02T21:53:47.193Z,97714.88
2022-11-02T21:56:16.917Z,97709.50
2022-11-02T21:58:46.179Z,97709.03
2022-11-02T22:01:44.457Z,97715.16
2022-11-02T22:04:32.210Z,97705.50
2022-11-02T22:06:59.577Z,97700.56
2022-11-02T22:09:26.876Z,97708.75
2022-11-02T22:12:11.932Z,97713.69
2022-11-02T22:14:39.445Z,97712.47
2022-11-02T22:17:16.149Z,97718.72
2022-11-02T22:19:43.271Z,97719.91
2022-11-02T22:22:09.830Z,97723.69
2022-11-02T22:24:39.540Z,97719.56
2022-11-02T22:27:08.625Z,97724.38
2022-11-02T22:29:35.926Z,97730.78
2022-11-02T22:32:02.450Z,97723.69
2022-11-02T22:34:28.947Z,97723.91
2022-11-02T22:37:15.483Z,97724.59
2022-11-02T22:39:43.392Z,97718.09
2022-11-02T22:42:09.936Z,97711.97
2022-11-02T22:44:36.598Z,97709.03
2022-11-02T22:47:03.169Z,97714.06
2022-11-02T22:49:29.677Z,97711.69
2022-11-02T22:51:56.174Z,97716.44
2022-11-02T22:54:23.053Z,97719.69
2022-11-02T22:56:49.631Z,97720.56
2022-11-02T22:59:16.343Z,97715.13
2022-11-02T23:01:43.547Z,97717.41
2022-11-02T23:04:11.833Z,97716.63
2022-11-02T23:06:38.628Z,97723.91
2022-11-02T23:09:05.223Z,97727.34
2022-11-02T23:11:36.205Z,97724.50
2022-11-02T23:14:04.514Z,97730.22
2022-11-02T23:16:33.711Z,97730.56
2022-11-02T23:19:27.805Z,97718.84
2022-11-02T23:22:27.554Z,97731.28
2022-11-02T23:25:12.292Z,97733.00
2022-11-02T23:28:02.167Z,97741.16
2022-11-02T23:30:55.068Z,97741.97
2022-11-02T23:33:23.508Z,97732.84
2022-11-02T23:36:08.905Z,97733.75
2022-11-02T23:38:54.430Z,97731.63
2022-11-02T23:41:21.066Z,97734.94
2022-11-02T23:43:48.192Z,97736.53
2022-11-02T23:46:15.439Z,97739.59
2022-11-02T23:48:42.360Z,97736.72
2022-11-02T23:51:30.250Z,97745.53
2022-11-02T23:54:15.164Z,97747.63
2022-11-02T23:56:44.772Z,97750.53
2022-11-02T23:59:15.768Z,97741.13
